Time;durP1;ratioP1;P1;durP2;ratioP2;P2;SDS_P1;SDS_P2;PMS_P1;PMS_P2;Temp;Humidity;BMP_temperature;BMP_pressure;BME280_temperature;BME280_humidity;BME280_pressure;Samples;Min_cycle;Max_cycle;Signal;HPM_P1;HPM_P2
2022/11/21 00:01:16;;;;;;;0.65;0.65;;;-0.10;99.90;;;;;;4993687;28;20455;-82
2022/11/21 00:03:42;;;;;;;0.70;0.70;;;0.00;99.90;;;;;;4995627;28;20495;-82
2022/11/21 00:06:08;;;;;;;0.70;0.70;;;0.00;99.90;;;;;;4997214;28;20068;-81
2022/11/21 00:08:34;;;;;;;0.77;0.77;;;0.10;99.90;;;;;;4999268;28;20072;-81
2022/11/21 00:11:03;;;;;;;0.60;0.60;;;-0.10;99.90;;;;;;5013236;28;20659;-79
2022/11/21 00:13:28;;;;;;;0.65;0.65;;;-0.10;99.90;;;;;;4983862;28;20091;-79
2022/11/21 00:15:54;;;;;;;1.42;1.40;;;-0.20;99.90;;;;;;4995726;28;20076;-81
2022/11/21 00:18:19;;;;;;;0.80;0.80;;;-0.20;99.90;;;;;;5014415;28;20053;-82
2022/11/21 00:20:45;;;;;;;0.80;0.80;;;-0.20;99.90;;;;;;4978776;28;20052;-79
2022/11/21 00:23:12;;;;;;;0.70;0.70;;;-0.20;99.90;;;;;;4997521;28;20051;-79
2022/11/21 00:25:38;;;;;;;0.80;0.80;;;-0.20;99.90;;;;;;4985935;28;20153;-80
2022/11/21 00:28:04;;;;;;;0.80;0.80;;;-0.20;99.90;;;;;;4999144;28;20050;-80
2022/11/21 00:30:30;;;;;;;0.65;0.65;;;-0.20;99.90;;;;;;4998704;28;20045;-82
2022/11/21 00:32:59;;;;;;;0.60;0.60;;;0.00;99.90;;;;;;4997128;28;20273;-80
2022/11/21 00:35:29;;;;;;;0.80;0.80;;;-0.30;99.90;;;;;;5012569;28;20052;-80
2022/11/21 00:37:55;;;;;;;1.30;1.30;;;-0.30;99.90;;;;;;4998613;28;20044;-79
2022/11/21 00:40:21;;;;;;;0.70;0.70;;;-0.30;99.90;;;;;;4999753;28;20037;-81
2022/11/21 00:42:48;;;;;;;0.70;0.70;;;-0.30;99.90;;;;;;4981592;28;20077;-80
2022/11/21 00:45:13;;;;;;;0.80;0.80;;;-0.30;99.90;;;;;;4998286;28;20045;-81
2022/11/21 00:47:39;;;;;;;0.70;0.70;;;-0.30;99.90;;;;;;4980561;28;20046;-81
2022/11/21 00:50:06;;;;;;;0.80;0.80;;;-0.30;99.90;;;;;;4997463;28;20591;-80
2022/11/21 00:52:32;;;;;;;1.45;1.38;;;-0.40;99.90;;;;;;5011250;28;20383;-81
2022/11/21 00:55:03;;;;;;;1.00;0.98;;;-0.40;99.90;;;;;;5001416;28;20124;-81
2022/11/21 00:57:29;;;;;;;0.70;0.70;;;-0.50;99.90;;;;;;5012142;28;20130;-81
2022/11/21 00:59:55;;;;;;;;;;;-0.60;99.90;;;;;;5001222;28;20104;-81
2022/11/21 01:02:22;;;;;;;0.77;0.77;;;-0.70;99.90;;;;;;4998881;28;19921;-81
2022/11/21 01:04:48;;;;;;;0.80;0.80;;;-0.80;99.90;;;;;;4998747;28;20067;-81
2022/11/21 01:07:14;;;;;;;1.00;1.00;;;-0.90;99.90;;;;;;4999382;28;20211;-80
2022/11/21 01:09:39;;;;;;;0.70;0.70;;;-1.00;99.90;;;;;;5011881;28;20041;-82
2022/11/21 01:12:08;;;;;;;0.80;0.80;;;-1.00;99.90;;;;;;5011836;28;20502;-82
2022/11/21 01:14:37;;;;;;;1.27;1.27;;;-1.00;99.90;;;;;;5013826;28;20089;-80
2022/11/21 01:17:02;;;;;;;1.15;1.15;;;-1.00;99.90;;;;;;4995780;28;20153;-80
2022/11/21 01:19:31;;;;;;;0.70;0.70;;;-1.00;99.90;;;;;;5012712;28;20037;-80
2022/11/21 01:21:57;;;;;;;0.73;0.73;;;0.00;99.90;;;;;;4999242;28;20056;-81
2022/11/21 01:24:28;;;;;;;0.60;0.60;;;-1.10;99.90;;;;;;4998901;28;20116;-81
2022/11/21 01:26:54;;;;;;;0.90;0.90;;;-1.00;99.90;;;;;;4997825;28;20049;-80
2022/11/21 01:29:26;;;;;;;0.80;0.80;;;-1.30;99.90;;;;;;4996888;28;20052;-80
2022/11/21 01:31:53;;;;;;;0.80;0.80;;;-1.40;99.90;;;;;;5000768;28;20092;-80
2022/11/21 01:34:19;;;;;;;0.80;0.80;;;-1.50;99.90;;;;;;5017854;28;20591;-81
2022/11/21 01:36:45;;;;;;;0.73;0.73;;;-1.60;99.90;;;;;;5002251;28;20440;-79
2022/11/21 01:39:11;;;;;;;0.90;0.90;;;-1.60;99.90;;;;;;5013928;28;20133;-81
2022/11/21 01:41:40;;;;;;;0.80;0.80;;;-1.70;99.90;;;;;;5018110;28;20088;-79
2022/11/21 01:44:12;;;;;;;0.65;0.65;;;-1.10;99.90;;;;;;5000571;28;20506;-81
2022/11/21 01:46:38;;;;;;;0.73;0.73;;;-1.80;99.90;;;;;;5015839;28;20406;-81
2022/11/21 01:49:27;;;;;;;1.00;1.00;;;-1.90;99.90;;;;;;5003282;28;20037;-81
2022/11/21 01:52:08;;;;;;;0.70;0.70;;;-1.90;99.90;;;;;;5018171;28;20049;-82
2022/11/21 01:54:41;;;;;;;0.60;0.60;;;-2.00;99.90;;;;;;5002520;28;20659;-80
2022/11/21 01:57:27;;;;;;;0.70;0.70;;;-2.00;99.90;;;;;;5016361;28;20049;-81
2022/11/21 02:00:36;;;;;;;0.75;0.75;;;-2.10;99.90;;;;;;5012921;28;20058;-83
2022/11/21 02:03:12;;;;;;;0.88;0.88;;;-2.10;99.90;;;;;;4919212;29;20055;-81
2022/11/21 02:05:40;;;;;;;0.80;0.80;;;-2.20;99.90;;;;;;4905095;28;20065;-81
2022/11/21 02:08:12;;;;;;;0.90;0.90;;;-2.20;99.90;;;;;;4933170;28;20051;-81
2022/11/21 02:10:41;;;;;;;0.80;0.80;;;-2.20;99.90;;;;;;4955278;28;20104;-80
2022/11/21 02:13:06;;;;;;;0.90;0.90;;;-2.20;99.90;;;;;;5000438;28;20050;-80
2022/11/21 02:15:32;;;;;;;0.90;0.90;;;-2.20;99.90;;;;;;4997666;28;20065;-81
2022/11/21 02:17:58;;;;;;;;;;;-2.20;99.90;;;;;;5001110;28;20403;-79
2022/11/21 02:20:28;;;;;;;1.33;1.23;;;-2.10;99.90;;;;;;5002839;28;19925;-80
2022/11/21 02:23:31;;;;;;;0.80;0.80;;;-2.20;99.90;;;;;;4989796;28;20056;-81
2022/11/21 02:25:58;;;;;;;5.40;1.65;;;-2.20;99.90;;;;;;5013678;28;21651;-81
2022/11/21 02:28:34;;;;;;;0.80;0.80;;;-2.10;99.90;;;;;;5004409;28;20141;-79
2022/11/21 02:31:00;;;;;;;2.45;2.25;;;-2.10;99.90;;;;;;5003468;28;20068;-82
2022/11/21 02:33:25;;;;;;;0.90;0.90;;;-1.80;99.90;;;;;;5021299;28;20053;-80
2022/11/21 02:35:59;;;;;;;0.93;0.93;;;-2.10;99.90;;;;;;5003980;28;20124;-81
2022/11/21 02:38:36;;;;;;;3.83;2.35;;;-2.80;99.90;;;;;;5016676;28;20107;-82
2022/11/21 02:41:13;;;;;;;0.90;0.90;;;-1.90;99.90;;;;;;4986000;28;20199;-82
2022/11/21 02:43:49;;;;;;;0.70;0.70;;;-1.80;99.90;;;;;;5000148;28;20095;-81
2022/11/21 02:46:15;;;;;;;0.90;0.90;;;-1.80;99.90;;;;;;5016662;28;20049;-81
2022/11/21 02:48:40;;;;;;;2.47;2.38;;;-1.80;99.90;;;;;;5004972;28;20311;-83
2022/11/21 02:51:06;;;;;;;0.70;0.70;;;-1.70;99.90;;;;;;5006101;28;20095;-81
2022/11/21 02:53:32;;;;;;;0.77;0.77;;;-1.10;99.90;;;;;;4989808;28;20099;-80
2022/11/21 02:55:57;;;;;;;;;;;-1.70;99.90;;;;;;5005602;28;20137;-81
2022/11/21 02:58:23;;;;;;;0.80;0.80;;;-1.70;99.90;;;;;;5007508;28;19967;-80
2022/11/21 03:00:49;;;;;;;1.20;1.15;;;-1.70;99.90;;;;;;5003062;28;20180;-81
2022/11/21 03:03:14;;;;;;;;;;;-1.70;99.90;;;;;;5005010;28;20560;-81
2022/11/21 03:05:41;;;;;;;0.85;0.85;;;-1.70;99.90;;;;;;5006391;28;19948;-80
2022/11/21 03:08:12;;;;;;;1.60;1.50;;;-1.70;99.90;;;;;;5006604;28;20040;-80
2022/11/21 03:10:38;;;;;;;1.10;1.05;;;-1.60;99.90;;;;;;5007467;28;20042;-80
2022/11/21 03:13:03;;;;;;;;;;;-1.60;99.90;;;;;;4974468;28;20045;-81
2022/11/21 03:15:32;;;;;;;1.70;1.60;;;-1.60;99.90;;;;;;5018188;28;19980;-81
2022/11/21 03:18:00;;;;;;;1.00;1.00;;;-1.50;99.90;;;;;;5003664;28;20050;-83
2022/11/21 03:20:25;;;;;;;1.48;1.38;;;-1.50;99.90;;;;;;5007576;28;20120;-82
2022/11/21 03:22:52;;;;;;;1.30;1.20;;;-1.40;99.90;;;;;;5005885;28;21834;-84
2022/11/21 03:25:25;;;;;;;0.73;0.73;;;-1.40;99.90;;;;;;5005166;28;20072;-84
2022/11/21 03:27:54;;;;;;;0.80;0.80;;;-1.50;99.90;;;;;;5008211;28;20053;-81
2022/11/21 03:30:22;;;;;;;1.23;1.23;;;-1.50;99.90;;;;;;5001011;28;20450;-82
2022/11/21 03:32:53;;;;;;;0.80;0.80;;;-1.60;99.90;;;;;;5010326;28;20045;-82
2022/11/21 03:35:19;;;;;;;0.93;0.93;;;-1.60;99.90;;;;;;4988455;28;20049;-82
2022/11/21 03:37:47;;;;;;;0.88;0.88;;;-1.50;99.90;;;;;;5000635;28;20102;-81
2022/11/21 03:40:13;;;;;;;1.70;1.60;;;-1.40;99.90;;;;;;5018377;28;20682;-83
2022/11/21 03:42:38;;;;;;;0.90;0.90;;;-1.40;99.90;;;;;;4990063;28;20063;-84
2022/11/21 03:45:05;;;;;;;0.80;0.80;;;-1.40;99.90;;;;;;5014074;28;20182;-84
2022/11/21 03:47:30;;;;;;;0.70;0.70;;;-1.40;99.90;;;;;;5005927;28;20132;-82
2022/11/21 03:49:56;;;;;;;1.10;1.10;;;-0.90;99.90;;;;;;4989374;28;20110;-82
2022/11/21 03:52:22;;;;;;;0.80;0.80;;;-1.50;99.90;;;;;;4989940;28;20052;-84
2022/11/21 03:54:49;;;;;;;2.70;2.47;;;-1.50;99.90;;;;;;5016426;28;20477;-83
2022/11/21 03:57:14;;;;;;;0.60;0.60;;;-1.60;99.90;;;;;;5002601;28;20046;-82
2022/11/21 03:59:41;;;;;;;0.70;0.70;;;-1.70;99.90;;;;;;4999119;28;20041;-84
2022/11/21 04:02:07;;;;;;;0.80;0.80;;;-1.70;99.90;;;;;;5001408;28;20054;-82
2022/11/21 04:04:33;;;;;;;0.90;0.90;;;-1.70;99.90;;;;;;5005530;28;20052;-83
2022/11/21 04:06:59;;;;;;;0.70;0.70;;;-1.80;99.90;;;;;;5003399;28;20049;-82
2022/11/21 04:09:24;;;;;;;;;;;-1.80;99.90;;;;;;4970367;28;20037;-83
2022/11/21 04:11:52;;;;;;;1.63;1.52;;;-1.70;99.90;;;;;;4988849;28;19925;-83
2022/11/21 04:14:23;;;;;;;2.15;1.60;;;-1.70;99.90;;;;;;5010036;28;20047;-82
2022/11/21 04:16:49;;;;;;;0.90;0.90;;;-1.50;99.90;;;;;;5005971;28;20144;-84
2022/11/21 04:19:15;;;;;;;1.00;1.00;;;-1.40;99.90;;;;;;5003774;28;20073;-83
2022/11/21 04:21:41;;;;;;;0.85;0.85;;;-1.20;99.90;;;;;;4982357;28;20191;-83
2022/11/21 04:24:07;;;;;;;1.30;1.20;;;-1.20;99.90;;;;;;5005470;28;20049;-83
2022/11/21 04:26:32;;;;;;;2.25;2.15;;;-1.20;99.90;;;;;;4967212;28;20078;-82
2022/11/21 04:28:58;;;;;;;0.80;0.80;;;-1.10;99.90;;;;;;5015798;28;20495;-83
2022/11/21 04:31:24;;;;;;;;;;;-1.20;99.90;;;;;;4999612;28;20065;-81
2022/11/21 04:33:51;;;;;;;0.60;0.60;;;-1.10;99.90;;;;;;5006811;28;19975;-84
2022/11/21 04:36:17;;;;;;;0.82;0.82;;;-1.00;99.90;;;;;;5001260;28;20053;-84
2022/11/21 04:38:44;;;;;;;0.80;0.80;;;-1.00;99.90;;;;;;5015239;28;20052;-81
2022/11/21 04:41:09;;;;;;;0.75;0.75;;;-1.00;99.90;;;;;;5001201;28;20047;-81
2022/11/21 04:43:35;;;;;;;0.80;0.80;;;-0.90;99.90;;;;;;5027732;28;20124;-81
2022/11/21 04:46:01;;;;;;;0.70;0.70;;;-0.90;99.90;;;;;;5017614;28;20038;-82
2022/11/21 04:48:27;;;;;;;0.90;0.90;;;-0.80;99.90;;;;;;5004416;28;20042;-82
2022/11/21 04:50:52;;;;;;;0.90;0.90;;;-0.70;99.90;;;;;;4999444;28;20064;-84
2022/11/21 04:53:18;;;;;;;0.85;0.85;;;-0.80;99.90;;;;;;5006132;28;20049;-84
2022/11/21 04:55:44;;;;;;;1.25;1.25;;;-0.80;99.90;;;;;;4990111;28;20033;-83
2022/11/21 04:58:09;;;;;;;2.45;2.35;;;-0.90;99.90;;;;;;4989191;28;20120;-82
2022/11/21 05:00:35;;;;;;;0.80;0.80;;;-0.90;99.90;;;;;;5005478;28;20448;-84
2022/11/21 05:03:05;;;;;;;0.95;0.95;;;-1.00;99.90;;;;;;5005614;28;20046;-82
2022/11/21 05:05:32;;;;;;;0.75;0.75;;;-0.20;99.90;;;;;;5009387;28;20048;-83
2022/11/21 05:07:58;;;;;;;1.00;1.00;;;-1.20;99.90;;;;;;4989105;28;20037;-83
2022/11/21 05:10:27;;;;;;;0.70;0.70;;;-1.30;99.90;;;;;;5019538;28;20049;-81
2022/11/21 05:15:42;;;;;;;1.40;1.30;;;-1.40;99.90;;;;;;5004026;28;20061;-85
2022/11/21 05:18:08;;;;;;;;;;;-1.30;99.90;;;;;;5001375;28;20734;-83
2022/11/21 05:20:34;;;;;;;0.50;0.50;;;-1.50;99.90;;;;;;5020926;28;20054;-82
2022/11/21 05:23:00;;;;;;;0.82;0.82;;;-1.60;99.90;;;;;;5018582;28;20097;-83
2022/11/21 05:25:25;;;;;;;0.90;0.90;;;-1.70;99.90;;;;;;5002933;28;20186;-84
2022/11/21 05:27:55;;;;;;;0.75;0.75;;;-1.70;99.90;;;;;;5020188;28;20041;-83
2022/11/21 05:30:24;;;;;;;0.57;0.57;;;-1.80;99.90;;;;;;5020980;28;20099;-84
2022/11/21 05:32:49;;;;;;;0.70;0.70;;;-1.90;99.90;;;;;;5006272;28;20041;-84
2022/11/21 05:35:15;;;;;;;0.70;0.70;;;-1.90;99.90;;;;;;5021567;28;20087;-85
2022/11/21 05:37:41;;;;;;;0.80;0.80;;;-0.90;99.90;;;;;;5010821;28;20052;-84
2022/11/21 05:40:07;;;;;;;0.80;0.80;;;-1.50;99.90;;;;;;5009093;28;20053;-83
2022/11/21 05:45:17;;;;;;;0.80;0.80;;;-2.00;99.90;;;;;;5009612;28;19921;-85
2022/11/21 05:47:42;;;;;;;0.70;0.70;;;-2.30;99.90;;;;;;5023392;28;20633;-83
2022/11/21 05:50:08;;;;;;;0.70;0.70;;;-2.30;99.90;;;;;;5006871;28;20128;-83
2022/11/21 05:52:34;;;;;;;0.93;0.93;;;-2.40;99.90;;;;;;4991985;28;20112;-84
2022/11/21 05:54:59;;;;;;;;;;;-2.10;99.90;;;;;;5013651;28;20132;-83
2022/11/21 05:57:25;;;;;;;0.68;0.68;;;-2.30;99.90;;;;;;5015498;28;19924;-86
2022/11/21 05:59:51;;;;;;;;;;;-2.20;99.90;;;;;;5028779;28;20087;-82
2022/11/21 06:05:04;;;;;;;;;;;-3.20;99.90;;;;;;5026574;28;20057;-84
2022/11/21 06:07:29;;;;;;;0.93;0.93;;;-2.30;99.90;;;;;;4998248;28;19924;-83
2022/11/21 06:09:55;;;;;;;0.70;0.70;;;-2.40;99.90;;;;;;5015484;28;20037;-81
2022/11/21 06:12:21;;;;;;;;;;;-2.00;99.90;;;;;;5010524;28;20049;-84
2022/11/21 06:14:47;;;;;;;0.73;0.73;;;-2.30;99.90;;;;;;5011286;28;20355;-83
2022/11/21 06:17:12;;;;;;;0.70;0.70;;;-2.40;99.90;;;;;;5011559;28;20044;-85
2022/11/21 06:19:38;;;;;;;0.70;0.70;;;-2.50;99.90;;;;;;5022361;28;20880;-84
2022/11/21 06:22:04;;;;;;;0.70;0.70;;;-2.50;99.90;;;;;;4994980;28;20049;-82
2022/11/21 06:24:29;;;;;;;0.60;0.60;;;-2.30;99.90;;;;;;4996218;28;20045;-85
2022/11/21 06:26:56;;;;;;;0.73;0.73;;;-2.60;99.90;;;;;;5010040;28;20574;-85
2022/11/21 06:29:22;;;;;;;0.80;0.80;;;-2.60;99.90;;;;;;5011608;28;20041;-83
2022/11/21 06:31:47;;;;;;;0.90;0.90;;;-2.70;99.90;;;;;;5005842;28;20049;-83
2022/11/21 06:34:13;;;;;;;;;;;-2.70;99.90;;;;;;4995897;28;20461;-86
2022/11/21 06:36:38;;;;;;;0.80;0.80;;;-2.80;99.90;;;;;;4994654;28;19924;-84
2022/11/21 06:39:04;;;;;;;0.68;0.68;;;-2.90;99.90;;;;;;5012098;28;20136;-85
2022/11/21 06:41:30;;;;;;;0.70;0.70;;;-2.90;99.90;;;;;;5028224;28;20037;-85
2022/11/21 06:44:00;;;;;;;0.85;0.85;;;-2.90;99.90;;;;;;5005916;28;20513;-81
2022/11/21 06:46:26;;;;;;;0.60;0.60;;;-3.00;99.90;;;;;;5027354;28;20037;-81
2022/11/21 06:48:52;;;;;;;0.60;0.60;;;-3.00;99.90;;;;;;5007111;28;20053;-82
2022/11/21 06:51:21;;;;;;;0.85;0.85;;;-3.00;99.90;;;;;;5049367;28;20045;-82
2022/11/21 06:53:55;;;;;;;0.80;0.80;;;-3.00;99.90;;;;;;5039225;28;20042;-84
2022/11/21 06:56:24;;;;;;;0.80;0.80;;;-3.10;99.90;;;;;;5033665;28;20060;-84
2022/11/21 06:58:50;;;;;;;0.60;0.60;;;-3.10;99.90;;;;;;5020811;28;20424;-84
2022/11/21 07:01:16;;;;;;;;;;;-3.00;99.90;;;;;;5015061;28;20053;-82
2022/11/21 07:03:44;;;;;;;0.90;0.90;;;-3.10;99.90;;;;;;5030625;28;19984;-84
2022/11/21 07:06:10;;;;;;;0.73;0.73;;;-3.00;99.90;;;;;;4995777;28;20168;-84
2022/11/21 07:08:36;;;;;;;;;;;-3.10;99.90;;;;;;5025645;28;20045;-84
2022/11/21 07:11:05;;;;;;;0.80;0.80;;;-3.10;99.90;;;;;;5017638;28;19921;-82
2022/11/21 07:13:31;;;;;;;0.85;0.85;;;-3.10;99.90;;;;;;5015939;28;20416;-81
2022/11/21 07:16:06;;;;;;;1.73;1.10;;;-3.10;99.90;;;;;;5013516;28;20095;-80
2022/11/21 07:18:33;;;;;;;0.80;0.80;;;-3.20;99.90;;;;;;5029588;28;20049;-84
2022/11/21 07:20:59;;;;;;;0.63;0.63;;;-3.20;99.90;;;;;;5005868;28;20175;-82
2022/11/21 07:23:25;;;;;;;0.80;0.80;;;-2.50;99.90;;;;;;5013884;28;20056;-84
2022/11/21 07:25:51;;;;;;;;;;;-3.00;99.90;;;;;;4986302;28;20037;-83
2022/11/21 07:28:16;;;;;;;0.80;0.80;;;-3.10;99.90;;;;;;5013000;28;19920;-83
2022/11/21 07:30:42;;;;;;;0.88;0.88;;;-3.00;99.90;;;;;;5013958;28;20048;-84
2022/11/21 07:33:08;;;;;;;0.70;0.70;;;-3.00;99.90;;;;;;4995111;28;20046;-82
2022/11/21 07:35:34;;;;;;;0.90;0.90;;;-3.00;99.90;;;;;;5012939;28;20073;-82
2022/11/21 07:38:01;;;;;;;0.80;0.80;;;-3.00;99.90;;;;;;5012705;28;20049;-84
2022/11/21 07:40:27;;;;;;;1.60;1.50;;;-2.90;99.90;;;;;;5028733;28;20048;-82
2022/11/21 07:42:59;;;;;;;0.90;0.90;;;-2.80;99.90;;;;;;5037433;28;20041;-81
2022/11/21 07:45:24;;;;;;;0.80;0.80;;;-2.80;99.90;;;;;;5010232;28;20385;-85
2022/11/21 07:47:57;;;;;;;0.70;0.70;;;-2.70;99.90;;;;;;5025612;28;20049;-83
2022/11/21 07:50:22;;;;;;;1.20;1.10;;;-2.60;99.90;;;;;;4997370;28;20559;-80
2022/11/21 07:52:48;;;;;;;0.80;0.80;;;-2.50;99.90;;;;;;5014381;28;20046;-82
2022/11/21 07:55:14;;;;;;;0.90;0.90;;;-1.40;99.90;;;;;;5010717;28;20044;-84
2022/11/21 07:57:40;;;;;;;0.70;0.70;;;-2.40;99.90;;;;;;5016263;28;20053;-79
2022/11/21 08:00:11;;;;;;;1.42;1.40;;;-2.30;99.90;;;;;;5028087;28;20387;-81
2022/11/21 08:02:37;;;;;;;0.77;0.77;;;-2.30;99.90;;;;;;5008474;28;20057;-81
2022/11/21 08:05:03;;;;;;;1.75;1.65;;;-2.20;99.90;;;;;;4992579;28;20049;-81
2022/11/21 08:07:29;;;;;;;;;;;-2.10;99.90;;;;;;5009897;28;20045;-83
2022/11/21 08:09:55;;;;;;;0.88;0.88;;;-1.90;99.90;;;;;;5003044;28;19925;-81
2022/11/21 08:12:21;;;;;;;1.48;1.45;;;-2.00;99.90;;;;;;5003341;28;20066;-85
2022/11/21 08:14:50;;;;;;;1.10;1.00;;;-2.00;99.90;;;;;;5021066;28;20131;-84
2022/11/21 08:17:21;;;;;;;1.92;1.83;;;-1.90;99.90;;;;;;4990033;28;20057;-84
2022/11/21 08:19:48;;;;;;;0.80;0.80;;;-1.80;99.90;;;;;;5007227;28;20492;-83
2022/11/21 08:22:14;;;;;;;3.53;3.40;;;-1.70;99.90;;;;;;4975533;28;20065;-83
2022/11/21 08:24:39;;;;;;;0.85;0.85;;;-1.60;99.90;;;;;;4990190;28;20491;-80
2022/11/21 08:27:05;;;;;;;0.82;0.82;;;-1.50;99.90;;;;;;5005093;28;20054;-81
2022/11/21 08:29:31;;;;;;;;;;;-1.40;99.90;;;;;;4991538;28;20040;-82
2022/11/21 08:31:57;;;;;;;0.70;0.70;;;-1.30;99.90;;;;;;5011088;28;19921;-84
2022/11/21 08:34:22;;;;;;;1.13;1.13;;;-1.30;99.90;;;;;;4996464;28;20045;-82
2022/11/21 08:36:48;;;;;;;0.73;0.73;;;-1.20;99.90;;;;;;4991816;28;20222;-81
2022/11/21 08:39:14;;;;;;;1.10;1.10;;;-0.20;99.90;;;;;;5027035;28;20049;-81
2022/11/21 08:44:34;;;;;;;1.08;1.08;;;-1.00;99.90;;;;;;5019775;28;20040;-82
2022/11/21 08:47:01;;;;;;;0.60;0.60;;;-0.90;99.90;;;;;;5032362;28;20042;-83
2022/11/21 08:49:27;;;;;;;0.77;0.77;;;-0.80;99.90;;;;;;5017367;28;20050;-81
2022/11/21 08:51:53;;;;;;;;;;;-0.80;99.90;;;;;;5009747;28;20042;-85
2022/11/21 08:54:21;;;;;;;0.80;0.80;;;-0.70;99.90;;;;;;4991542;28;19917;-83
2022/11/21 08:56:47;;;;;;;0.80;0.80;;;-0.60;99.90;;;;;;5008378;28;20050;-84
2022/11/21 08:59:13;;;;;;;;;;;-0.50;99.90;;;;;;5010534;28;20061;-83
2022/11/21 09:01:38;;;;;;;0.80;0.80;;;-0.40;99.90;;;;;;5021575;28;19929;-84
2022/11/21 09:04:05;;;;;;;1.00;1.00;;;-0.30;99.90;;;;;;4996353;28;20100;-85
2022/11/21 09:06:32;;;;;;;0.85;0.85;;;-0.20;99.90;;;;;;4993069;28;20046;-84
2022/11/21 09:08:58;;;;;;;1.50;1.40;;;-0.10;99.90;;;;;;5014073;28;20033;-85
2022/11/21 09:11:24;;;;;;;0.77;0.77;;;0.00;99.90;;;;;;5006133;28;20842;-83
2022/11/21 09:19:22;;;;;;;0.75;0.75;;;0.20;99.90;;;;;;5005688;28;20061;-83
2022/11/21 09:21:49;;;;;;;1.08;1.08;;;0.20;99.90;;;;;;4999378;28;20046;-84
2022/11/21 09:24:15;;;;;;;1.92;1.83;;;0.30;99.90;;;;;;5004869;28;20045;-84
2022/11/21 09:26:40;;;;;;;0.75;0.75;;;0.70;99.90;;;;;;5008116;28;20635;-84
2022/11/21 09:29:09;;;;;;;1.95;1.30;;;0.40;99.90;;;;;;5009405;28;20088;-84
2022/11/21 09:31:36;;;;;;;1.05;1.05;;;0.40;99.90;;;;;;5013172;28;20679;-84
2022/11/21 09:34:02;;;;;;;0.70;0.70;;;0.50;99.90;;;;;;4999365;28;20085;-82
2022/11/21 09:36:28;;;;;;;0.98;0.98;;;0.50;99.90;;;;;;5033811;28;20049;-82
2022/11/21 09:38:54;;;;;;;0.70;0.70;;;0.60;99.90;;;;;;4984328;28;20053;-84
2022/11/21 09:44:57;;;;;;;2.63;2.45;;;0.70;99.90;;;;;;4997992;28;20034;-83
2022/11/21 09:47:31;;;;;;;1.10;1.10;;;0.80;99.90;;;;;;5007872;28;20123;-83
2022/11/21 09:50:13;;;;;;;1.63;1.55;;;0.80;99.90;;;;;;5006132;28;20038;-81
2022/11/21 09:53:10;;;;;;;0.73;0.73;;;0.90;99.90;;;;;;5024515;28;20046;-81
2022/11/21 09:55:51;;;;;;;1.00;1.00;;;1.00;99.90;;;;;;5011541;28;20066;-82
2022/11/21 09:58:31;;;;;;;0.90;0.90;;;1.00;99.90;;;;;;5026259;28;20041;-82
2022/11/21 10:01:00;;;;;;;0.80;0.80;;;1.20;99.90;;;;;;5011533;28;20439;-83
2022/11/21 10:03:29;;;;;;;0.60;0.60;;;1.20;99.90;;;;;;5009042;28;20046;-82
2022/11/21 10:06:20;;;;;;;0.70;0.70;;;1.30;99.90;;;;;;5004218;28;20034;-82
2022/11/21 10:08:56;;;;;;;0.73;0.73;;;1.40;99.90;;;;;;5006792;28;20888;-83
2022/11/21 10:14:52;;;;;;;0.73;0.73;;;1.60;99.90;;;;;;5008509;28;20395;-82
2022/11/21 10:17:42;;;;;;;0.70;0.70;;;1.60;99.90;;;;;;5015571;28;20057;-83
2022/11/21 10:20:26;;;;;;;0.73;0.73;;;1.70;99.90;;;;;;5020916;28;20489;-82
2022/11/21 10:23:13;;;;;;;0.75;0.75;;;1.70;99.90;;;;;;5008983;28;20395;-84
2022/11/21 10:25:43;;;;;;;;;;;1.80;99.90;;;;;;5012873;28;20046;-83
2022/11/21 10:28:33;;;;;;;2.25;2.15;;;1.90;99.90;;;;;;5006722;28;20389;-84
2022/11/21 10:30:59;;;;;;;1.15;1.15;;;2.00;99.90;;;;;;4990430;28;20113;-84
2022/11/21 10:33:31;;;;;;;0.70;0.70;;;3.10;99.90;;;;;;4991490;28;20041;-82
2022/11/21 10:36:15;;;;;;;0.80;0.80;;;2.20;99.90;;;;;;5007322;28;20089;-82
2022/11/21 10:38:43;;;;;;;0.77;0.77;;;2.60;99.90;;;;;;5006638;28;21548;-81
2022/11/21 10:41:22;;;;;;;0.95;0.95;;;2.70;99.90;;;;;;5002305;28;20042;-82
2022/11/21 10:46:58;;;;;;;0.70;0.70;;;2.00;99.90;;;;;;5004880;28;20096;-81
2022/11/21 10:49:26;;;;;;;0.70;0.70;;;1.90;99.90;;;;;;4988205;28;20483;-83
2022/11/21 10:52:12;;;;;;;0.70;0.70;;;2.50;99.90;;;;;;5017687;28;20120;-80
2022/11/21 10:55:03;;;;;;;1.65;1.55;;;1.60;99.90;;;;;;5006304;28;20062;-81
2022/11/21 10:57:49;;;;;;;1.02;1.02;;;1.50;99.90;;;;;;4998849;28;20585;-85
2022/11/21 11:00:25;;;;;;;1.38;1.17;;;1.40;99.90;;;;;;5014629;28;20042;-82
2022/11/21 11:02:54;;;;;;;0.70;0.70;;;1.40;99.90;;;;;;5011387;28;20085;-83
2022/11/21 11:05:26;;;;;;;0.85;0.85;;;1.50;99.90;;;;;;4999800;28;20131;-82
2022/11/21 11:08:12;;;;;;;0.80;0.80;;;1.60;99.90;;;;;;5022319;28;20033;-82
2022/11/21 11:10:38;;;;;;;0.70;0.70;;;1.70;99.90;;;;;;5002613;28;20080;-82
2022/11/21 11:13:34;;;;;;;0.60;0.60;;;2.70;99.90;;;;;;5003755;28;20452;-84
2022/11/21 11:16:20;;;;;;;0.68;0.68;;;2.40;99.90;;;;;;5002456;28;20050;-81
2022/11/21 11:19:03;;;;;;;0.70;0.70;;;2.20;99.90;;;;;;5007635;28;20120;-82
2022/11/21 11:21:38;;;;;;;0.77;0.77;;;2.40;99.90;;;;;;5011249;28;20052;-83
2022/11/21 11:24:16;;;;;;;1.77;1.60;;;2.60;99.90;;;;;;5024765;28;20052;-82
2022/11/21 11:26:48;;;;;;;1.00;1.00;;;2.90;99.90;;;;;;5013339;28;20045;-82
2022/11/21 11:29:21;;;;;;;0.95;0.95;;;3.10;99.90;;;;;;5007279;28;20045;-84
2022/11/21 11:32:09;;;;;;;0.65;0.65;;;3.20;99.90;;;;;;5023224;28;20052;-83
2022/11/21 11:34:38;;;;;;;0.60;0.60;;;3.40;99.90;;;;;;5006181;28;20045;-81
2022/11/21 11:37:18;;;;;;;0.60;0.60;;;3.60;99.90;;;;;;5010825;28;20041;-81
2022/11/21 11:40:36;;;;;;;0.65;0.65;;;3.70;99.90;;;;;;5025606;28;20041;-83
2022/11/21 11:49:14;;;;;;;1.00;1.00;;;4.10;99.90;;;;;;5013804;28;20049;-83
2022/11/21 11:51:46;;;;;;;0.70;0.70;;;4.10;99.90;;;;;;5018705;28;20049;-83
2022/11/21 11:54:28;;;;;;;0.73;0.73;;;4.00;99.90;;;;;;5030355;28;20103;-86
2022/11/21 11:56:56;;;;;;;0.80;0.80;;;4.10;99.90;;;;;;5026093;28;20103;-83
2022/11/21 11:59:38;;;;;;;0.85;0.85;;;4.00;99.90;;;;;;5013917;28;20041;-82
2022/11/21 12:02:19;;;;;;;0.60;0.60;;;4.00;99.90;;;;;;5022427;28;20049;-83
2022/11/21 12:05:15;;;;;;;0.90;0.90;;;4.60;99.90;;;;;;5001946;28;20045;-84
2022/11/21 12:08:18;;;;;;;1.17;1.17;;;4.10;99.90;;;;;;5015539;28;20048;-83
2022/11/21 12:13:40;;;;;;;0.70;0.70;;;4.40;99.90;;;;;;4996581;28;20060;-84
2022/11/21 12:16:11;;;;;;;0.65;0.65;;;4.40;99.90;;;;;;4997444;28;20041;-82
2022/11/21 12:18:55;;;;;;;0.60;0.60;;;4.40;99.90;;;;;;4996555;28;20057;-82
2022/11/21 12:21:22;;;;;;;0.50;0.50;;;4.30;99.90;;;;;;4996087;28;20102;-82
2022/11/21 12:23:52;;;;;;;0.57;0.57;;;4.50;99.90;;;;;;4996830;28;20111;-84
2022/11/21 12:26:42;;;;;;;0.60;0.60;;;4.50;99.90;;;;;;4998604;28;20049;-81
2022/11/21 12:29:28;;;;;;;1.05;1.05;;;4.50;99.90;;;;;;4994453;28;20481;-81
2022/11/21 12:32:03;;;;;;;1.23;1.15;;;4.50;99.90;;;;;;4992591;28;20188;-82
2022/11/21 12:34:35;;;;;;;0.70;0.70;;;4.40;99.90;;;;;;5000743;28;20347;-83
2022/11/21 12:37:08;;;;;;;0.80;0.80;;;4.30;99.90;;;;;;4997713;28;20441;-82
2022/11/21 12:39:44;;;;;;;0.57;0.57;;;4.20;99.90;;;;;;4993615;28;20108;-82
2022/11/21 12:42:49;;;;;;;1.10;1.10;;;3.80;99.90;;;;;;4994075;28;20061;-82
2022/11/21 12:45:38;;;;;;;0.90;0.90;;;4.00;99.90;;;;;;4994769;28;20076;-81
2022/11/21 12:54:54;;;;;;;4.28;1.92;;;3.80;99.90;;;;;;4998043;28;20046;-83
2022/11/21 12:57:28;;;;;;;1.10;1.02;;;3.70;99.90;;;;;;4997027;28;21843;-83
2022/11/21 13:00:08;;;;;;;0.70;0.70;;;3.60;99.90;;;;;;4987024;28;21311;-82
2022/11/21 13:03:11;;;;;;;1.77;1.25;;;3.60;99.90;;;;;;5006875;28;20057;-82
2022/11/21 13:05:45;;;;;;;0.63;0.63;;;3.50;99.90;;;;;;4999323;28;20065;-82
2022/11/21 13:08:22;;;;;;;0.70;0.70;;;3.50;99.90;;;;;;4997615;28;20868;-83
2022/11/21 13:14:11;;;;;;;0.60;0.60;;;3.50;99.90;;;;;;5001937;28;20037;-81
2022/11/21 13:16:45;;;;;;;0.60;0.60;;;3.50;99.90;;;;;;4999959;28;20085;-83
2022/11/21 13:19:41;;;;;;;1.05;1.05;;;4.20;99.90;;;;;;5010130;28;20103;-81
2022/11/21 13:22:34;;;;;;;1.95;1.85;;;3.40;99.90;;;;;;5009966;28;21871;-82
2022/11/21 13:25:10;;;;;;;0.77;0.77;;;3.40;99.90;;;;;;4991842;28;20033;-82
2022/11/21 13:27:43;;;;;;;0.70;0.70;;;3.40;99.90;;;;;;4980935;28;20049;-81
2022/11/21 13:30:17;;;;;;;0.65;0.65;;;3.60;99.90;;;;;;4979660;28;20630;-81
2022/11/21 13:32:48;;;;;;;0.60;0.60;;;3.30;99.90;;;;;;5009221;28;20033;-81
2022/11/21 13:35:20;;;;;;;1.15;1.05;;;3.30;99.90;;;;;;4996261;28;20052;-82
2022/11/21 13:38:03;;;;;;;0.70;0.70;;;4.60;99.90;;;;;;4998820;28;20047;-84
2022/11/21 13:40:29;;;;;;;1.80;1.70;;;3.30;99.90;;;;;;4995532;28;20069;-82
2022/11/21 13:43:18;;;;;;;2.15;1.95;;;3.30;99.90;;;;;;4995640;28;20128;-82
2022/11/21 13:46:03;;;;;;;2.38;1.38;;;3.20;99.90;;;;;;4979039;28;20088;-82
2022/11/21 13:49:10;;;;;;;1.15;1.15;;;3.20;99.90;;;;;;5002897;28;20045;-83
2022/11/21 13:51:51;;;;;;;0.95;0.75;;;3.70;99.90;;;;;;4940517;28;20064;-81
2022/11/21 13:54:36;;;;;;;0.70;0.70;;;3.10;99.90;;;;;;4983874;28;20987;-82
2022/11/21 13:58:02;;;;;;;0.95;0.95;;;3.10;99.90;;;;;;5000487;28;20049;-83
2022/11/21 14:00:34;;;;;;;0.70;0.70;;;3.00;99.90;;;;;;4941433;28;20149;-81